Time;durP1;ratioP1;P1;durP2;ratioP2;P2;SDS_P1;SDS_P2;PMS_P1;PMS_P2;Temp;Humidity;BMP_temperature;BMP_pressure;BME280_temperature;BME280_humidity;BME280_pressure;Samples;Min_cycle;Max_cycle;Signal;HPM_P1;HPM_P2
2022/06/10 00:01:50;;;;;;;5.38;2.42;;;13.10;99.90;;;;;;5011929;28;20140;-48
2022/06/10 00:04:16;;;;;;;5.90;2.28;;;13.10;99.90;;;;;;5012198;28;20030;-49
2022/06/10 00:06:42;;;;;;;4.78;2.35;;;13.10;99.90;;;;;;5011915;28;20453;-49
2022/06/10 00:09:07;;;;;;;12.23;2.63;;;13.00;99.90;;;;;;5011962;28;20030;-49
2022/06/10 00:11:33;;;;;;;4.70;2.55;;;13.00;99.90;;;;;;5013220;28;20030;-48
2022/06/10 00:13:59;;;;;;;3.03;2.05;;;12.90;99.90;;;;;;5011804;28;20030;-50
2022/06/10 00:16:24;;;;;;;7.40;2.38;;;12.90;99.90;;;;;;5012085;28;20030;-52
2022/06/10 00:18:50;;;;;;;6.97;3.10;;;12.90;99.90;;;;;;5012591;28;20112;-49
2022/06/10 00:21:18;;;;;;;7.95;2.13;;;12.90;99.90;;;;;;5013070;28;20022;-52
2022/06/10 00:23:44;;;;;;;7.05;2.33;;;12.90;99.90;;;;;;5013006;28;20018;-50
2022/06/10 00:26:11;;;;;;;2.97;2.15;;;12.80;99.90;;;;;;5011586;28;20049;-48
2022/06/10 00:28:37;;;;;;;3.25;2.28;;;12.70;99.90;;;;;;5012025;28;20056;-50
2022/06/10 00:31:03;;;;;;;2.85;1.70;;;12.70;99.90;;;;;;5015072;28;20037;-55
2022/06/10 00:33:33;;;;;;;7.13;2.35;;;12.70;99.90;;;;;;5015679;28;20040;-51
2022/06/10 00:35:59;;;;;;;3.83;2.15;;;12.60;99.90;;;;;;5016374;28;20026;-49
2022/06/10 00:38:25;;;;;;;3.40;2.00;;;12.70;99.90;;;;;;5017085;28;20049;-48
2022/06/10 00:40:54;;;;;;;5.53;2.20;;;12.60;99.90;;;;;;5016611;28;20036;-48
2022/06/10 00:43:23;;;;;;;3.85;2.17;;;12.70;99.90;;;;;;5016710;28;20095;-50
2022/06/10 00:46:05;;;;;;;4.03;2.53;;;12.60;99.90;;;;;;5015405;28;20091;-48
2022/06/10 00:48:40;;;;;;;4.13;2.30;;;12.50;99.90;;;;;;5016787;28;20033;-48
2022/06/10 00:51:27;;;;;;;5.63;1.90;;;12.50;99.90;;;;;;5016571;28;20029;-53
2022/06/10 00:54:16;;;;;;;7.28;2.13;;;12.50;99.90;;;;;;5015195;28;20055;-52
2022/06/10 00:56:48;;;;;;;3.22;2.15;;;12.40;99.90;;;;;;5016473;28;20030;-48
2022/06/10 00:59:24;;;;;;;2.72;2.00;;;12.40;99.90;;;;;;5016475;28;20156;-52
2022/06/10 01:01:54;;;;;;;3.15;2.03;;;12.40;99.90;;;;;;5016645;28;20042;-51
2022/06/10 01:04:20;;;;;;;11.02;2.55;;;12.40;99.90;;;;;;5016604;28;20022;-49
2022/06/10 01:06:45;;;;;;;5.95;1.92;;;12.40;99.90;;;;;;5015091;28;20026;-48
2022/06/10 01:09:12;;;;;;;2.58;1.77;;;12.40;99.90;;;;;;5015043;28;20030;-50
2022/06/10 01:11:55;;;;;;;2.25;1.77;;;12.30;99.90;;;;;;5016168;28;20081;-48
2022/06/10 01:14:46;;;;;;;5.43;2.22;;;12.30;99.90;;;;;;5015986;28;20026;-48
2022/06/10 01:17:39;;;;;;;5.65;2.25;;;12.20;99.90;;;;;;5016210;28;20025;-48
2022/06/10 01:20:36;;;;;;;2.30;1.90;;;12.20;99.90;;;;;;5015158;28;20033;-48
2022/06/10 01:23:33;;;;;;;3.95;2.08;;;12.10;99.90;;;;;;5016474;28;20092;-50
2022/06/10 01:26:13;;;;;;;12.10;2.03;;;12.10;99.90;;;;;;5015422;28;20040;-48
2022/06/10 01:29:15;;;;;;;3.92;2.35;;;12.00;99.90;;;;;;5016178;28;20026;-49
2022/06/10 01:31:52;;;;;;;5.82;1.92;;;12.00;99.90;;;;;;5016000;28;20053;-48
2022/06/10 01:34:28;;;;;;;5.15;2.05;;;12.00;99.90;;;;;;5015272;28;20034;-50
2022/06/10 01:37:11;;;;;;;6.78;2.50;;;12.00;99.90;;;;;;5016170;28;20029;-49
2022/06/10 01:39:36;;;;;;;3.50;2.03;;;12.00;99.90;;;;;;5014353;28;20022;-50
2022/06/10 01:42:28;;;;;;;3.92;2.13;;;12.00;99.90;;;;;;5013786;28;20034;-49
2022/06/10 01:44:54;;;;;;;;;;;11.90;99.90;;;;;;5016477;28;20018;-49
2022/06/10 01:47:35;;;;;;;3.63;2.28;;;11.90;99.90;;;;;;5015476;28;19912;-48
2022/06/10 01:53:30;;;;;;;4.70;2.95;;;11.80;99.90;;;;;;5015813;28;20068;-47
2022/06/10 01:56:31;;;;;;;7.25;2.17;;;11.80;99.90;;;;;;5015325;28;20380;-49
2022/06/10 01:59:13;;;;;;;6.90;2.10;;;11.70;99.90;;;;;;5015249;28;20124;-49
2022/06/10 02:01:44;;;;;;;4.15;2.05;;;11.70;99.90;;;;;;5015097;28;20037;-48
2022/06/10 02:04:20;;;;;;;9.87;2.40;;;11.70;99.90;;;;;;5015265;28;20105;-51
2022/06/10 02:06:54;;;;;;;3.55;2.20;;;11.60;99.90;;;;;;5013918;28;20040;-48
2022/06/10 02:09:30;;;;;;;3.65;1.80;;;11.60;99.90;;;;;;5014490;28;20026;-48
2022/06/10 02:12:02;;;;;;;4.00;2.42;;;11.80;99.90;;;;;;5013737;28;20041;-47
2022/06/10 02:14:37;;;;;;;4.78;2.42;;;11.80;99.90;;;;;;5015135;28;20026;-48
2022/06/10 02:17:04;;;;;;;9.13;3.00;;;12.00;99.90;;;;;;5013710;28;20034;-49
2022/06/10 02:19:37;;;;;;;6.07;3.60;;;12.10;99.90;;;;;;5015143;28;20026;-48
2022/06/10 02:22:34;;;;;;;14.27;3.17;;;12.10;99.90;;;;;;5014369;28;20026;-48
2022/06/10 02:25:29;;;;;;;4.72;3.05;;;12.00;99.90;;;;;;5014101;28;20018;-50
2022/06/10 02:28:01;;;;;;;8.63;3.20;;;11.80;99.90;;;;;;5015017;28;20032;-47
2022/06/10 02:30:55;;;;;;;6.47;3.22;;;11.80;99.90;;;;;;5013776;28;20087;-49
2022/06/10 02:33:21;;;;;;;5.93;3.08;;;11.70;99.90;;;;;;5004623;28;20042;-47
2022/06/10 02:36:16;;;;;;;8.25;3.35;;;11.70;99.90;;;;;;5014547;28;20101;-48
2022/06/10 02:39:06;;;;;;;9.10;3.75;;;11.50;99.90;;;;;;5014695;28;20014;-49
2022/06/10 02:41:52;;;;;;;13.02;2.97;;;11.40;99.90;;;;;;5013172;28;20030;-49
2022/06/10 02:44:27;;;;;;;9.40;3.53;;;11.40;99.90;;;;;;5014764;28;20029;-49
2022/06/10 02:47:28;;;;;;;7.55;3.53;;;11.30;99.90;;;;;;5013165;28;20029;-48
2022/06/10 02:49:54;;;;;;;4.32;3.28;;;11.30;99.90;;;;;;5012379;28;20541;-49
2022/06/10 02:52:22;;;;;;;4.45;3.00;;;11.30;99.90;;;;;;5013861;28;20069;-48
2022/06/10 02:54:48;;;;;;;6.88;2.95;;;11.30;99.90;;;;;;5014031;28;20025;-51
2022/06/10 02:57:18;;;;;;;13.70;5.50;;;11.30;99.90;;;;;;5012796;28;20022;-51
2022/06/10 03:02:54;;;;;;;10.45;3.80;;;11.20;99.90;;;;;;5014296;28;20492;-47
2022/06/10 03:05:35;;;;;;;5.75;3.25;;;11.20;99.90;;;;;;5013791;28;20029;-49
2022/06/10 03:08:23;;;;;;;5.75;3.42;;;11.20;99.90;;;;;;5014113;28;20021;-47
2022/06/10 03:11:08;;;;;;;9.18;4.25;;;11.20;99.90;;;;;;5029198;28;20030;-47
2022/06/10 03:14:07;;;;;;;5.68;3.20;;;11.20;99.90;;;;;;5013908;28;20041;-48
2022/06/10 03:16:32;;;;;;;13.63;3.50;;;11.20;99.90;;;;;;5029270;28;20022;-48
2022/06/10 03:18:59;;;;;;;3.60;3.05;;;11.20;99.90;;;;;;5013807;28;20028;-47
2022/06/10 03:21:52;;;;;;;10.82;3.20;;;11.20;99.90;;;;;;5013576;28;20018;-50
2022/06/10 03:24:43;;;;;;;7.35;3.53;;;11.20;99.90;;;;;;5012414;28;20408;-52
2022/06/10 03:27:24;;;;;;;8.18;3.08;;;11.20;99.90;;;;;;5012405;28;20073;-49
2022/06/10 03:30:12;;;;;;;8.38;3.28;;;11.20;99.90;;;;;;5012415;28;20030;-53
2022/06/10 03:32:49;;;;;;;4.57;2.90;;;11.20;99.90;;;;;;5012180;28;20160;-48
2022/06/10 03:35:22;;;;;;;4.57;2.97;;;11.20;99.90;;;;;;5013552;28;20026;-48
2022/06/10 03:37:48;;;;;;;6.55;3.00;;;11.20;99.90;;;;;;5013731;28;20018;-48
2022/06/10 03:40:21;;;;;;;10.45;4.45;;;11.20;99.90;;;;;;5012189;28;20044;-50
2022/06/10 03:42:58;;;;;;;4.53;3.00;;;11.30;99.90;;;;;;5013248;28;20061;-49
2022/06/10 03:45:36;;;;;;;16.73;3.97;;;11.30;99.90;;;;;;5012517;28;20088;-48
2022/06/10 03:48:02;;;;;;;10.98;3.83;;;11.30;99.90;;;;;;5013708;28;20037;-51
2022/06/10 03:50:33;;;;;;;9.50;2.72;;;11.40;99.90;;;;;;5013635;28;20041;-49
2022/06/10 03:52:58;;;;;;;14.57;2.97;;;11.40;99.90;;;;;;5013309;28;20033;-53
2022/06/10 03:55:24;;;;;;;5.13;2.88;;;11.40;99.90;;;;;;5011872;28;20030;-48
2022/06/10 03:57:50;;;;;;;6.63;3.30;;;11.50;99.90;;;;;;5028210;28;20021;-49
2022/06/10 04:00:20;;;;;;;8.80;2.75;;;11.70;99.90;;;;;;5013253;28;20026;-48
2022/06/10 04:02:45;;;;;;;5.78;2.88;;;11.90;99.90;;;;;;5012050;28;20018;-51
2022/06/10 04:05:27;;;;;;;7.35;3.80;;;12.10;99.90;;;;;;5013070;28;20101;-48
2022/06/10 04:07:53;;;;;;;12.15;2.97;;;12.20;99.90;;;;;;5011905;28;20034;-48
2022/06/10 04:10:23;;;;;;;9.68;3.35;;;12.30;99.90;;;;;;5028758;28;20036;-50
2022/06/10 04:12:50;;;;;;;8.00;3.00;;;12.60;99.90;;;;;;5012669;28;20091;-51
2022/06/10 04:15:15;;;;;;;3.88;2.58;;;12.80;99.90;;;;;;5011915;28;20060;-51
2022/06/10 04:17:46;;;;;;;7.75;2.92;;;13.10;99.90;;;;;;5013355;28;20058;-52
2022/06/10 04:20:16;;;;;;;5.38;3.10;;;13.40;99.90;;;;;;5012637;28;20118;-49
2022/06/10 04:22:41;;;;;;;6.10;2.83;;;13.50;99.90;;;;;;5013315;28;20093;-51
2022/06/10 04:25:08;;;;;;;5.80;3.15;;;13.70;99.90;;;;;;5011704;28;20438;-48
2022/06/10 04:27:33;;;;;;;6.05;2.72;;;14.00;99.90;;;;;;5011722;28;20034;-51
2022/06/10 04:29:59;;;;;;;9.23;3.03;;;14.30;99.90;;;;;;5011551;28;20439;-48
2022/06/10 04:32:25;;;;;;;3.47;2.50;;;14.60;99.90;;;;;;5012249;28;20048;-50
2022/06/10 04:34:50;;;;;;;4.82;2.35;;;14.80;99.90;;;;;;5012091;28;20053;-48
2022/06/10 04:37:16;;;;;;;5.38;3.10;;;15.00;99.90;;;;;;5012270;28;20476;-52
2022/06/10 04:39:41;;;;;;;4.30;2.92;;;15.30;99.90;;;;;;5013258;28;20449;-52
2022/06/10 04:42:07;;;;;;;4.95;3.22;;;15.60;99.90;;;;;;5028368;28;20045;-52
2022/06/10 04:44:33;;;;;;;8.80;3.10;;;15.90;99.90;;;;;;5028399;28;20125;-51
2022/06/10 04:46:59;;;;;;;5.20;2.72;;;16.00;99.90;;;;;;5012037;28;20022;-48
2022/06/10 04:49:25;;;;;;;4.05;2.80;;;16.10;99.90;;;;;;5013173;28;20041;-50
2022/06/10 04:51:50;;;;;;;5.38;2.90;;;16.20;99.90;;;;;;5028365;28;20065;-50
2022/06/10 04:54:16;;;;;;;5.97;2.72;;;16.50;99.90;;;;;;5013071;28;20034;-49
2022/06/10 04:56:41;;;;;;;5.63;2.70;;;16.90;99.90;;;;;;5012988;28;20089;-49
2022/06/10 04:59:07;;;;;;;4.88;3.50;;;17.10;99.90;;;;;;5012241;28;20101;-53
2022/06/10 05:01:33;;;;;;;5.60;3.40;;;17.40;99.90;;;;;;5013102;28;20057;-49
2022/06/10 05:03:58;;;;;;;3.60;2.50;;;17.70;99.90;;;;;;5028200;28;20081;-50
2022/06/10 05:06:24;;;;;;;4.15;2.78;;;18.00;99.90;;;;;;5013114;28;20022;-50
2022/06/10 05:08:49;;;;;;;5.60;2.85;;;18.30;99.90;;;;;;5013030;28;20041;-49
2022/06/10 05:11:15;;;;;;;4.38;2.72;;;18.50;99.90;;;;;;5028190;28;20034;-49
2022/06/10 05:13:41;;;;;;;3.22;2.92;;;18.90;99.90;;;;;;5011658;28;20026;-48
2022/06/10 05:16:06;;;;;;;4.70;2.90;;;19.10;99.90;;;;;;5012543;28;20038;-47
2022/06/10 05:18:32;;;;;;;4.30;2.72;;;19.50;99.90;;;;;;5016428;28;20105;-48
2022/06/10 05:20:58;;;;;;;5.80;3.05;;;19.80;99.90;;;;;;5016437;28;20067;-48
2022/06/10 05:23:26;;;;;;;2.92;2.50;;;20.10;99.90;;;;;;5016339;28;20022;-48
2022/06/10 05:25:52;;;;;;;5.65;3.20;;;20.40;99.90;;;;;;5016354;28;20381;-49
2022/06/10 05:28:19;;;;;;;3.67;2.95;;;20.60;99.90;;;;;;5015569;28;20018;-48
2022/06/10 05:30:45;;;;;;;4.70;2.65;;;20.90;99.90;;;;;;5015237;28;20026;-50
2022/06/10 05:33:12;;;;;;;3.30;2.53;;;21.20;99.90;;;;;;5014886;28;20049;-49
2022/06/10 05:35:39;;;;;;;2.95;2.22;;;21.60;99.90;;;;;;5016183;28;20103;-49
2022/06/10 05:38:05;;;;;;;4.65;3.28;;;22.00;99.90;;;;;;5016057;28;20022;-48
2022/06/10 05:40:32;;;;;;;7.80;3.70;;;22.40;99.90;;;;;;5016079;28;20026;-53
2022/06/10 05:42:58;;;;;;;3.40;2.55;;;22.60;99.90;;;;;;5032005;28;20041;-48
2022/06/10 05:45:26;;;;;;;4.80;2.63;;;22.90;99.90;;;;;;5016243;28;20092;-50
2022/06/10 05:47:58;;;;;;;5.20;2.83;;;22.90;99.90;;;;;;5015870;28;20034;-48
2022/06/10 05:50:35;;;;;;;7.35;3.00;;;23.10;99.90;;;;;;5015980;28;20049;-48
2022/06/10 05:53:02;;;;;;;5.13;3.00;;;23.30;99.90;;;;;;5015093;28;20034;-48
2022/06/10 05:55:48;;;;;;;2.92;2.50;;;23.80;99.90;;;;;;5015857;28;20026;-48
2022/06/10 05:58:14;;;;;;;9.70;2.83;;;24.20;99.90;;;;;;5015467;28;20084;-48
2022/06/10 06:00:40;;;;;;;3.22;2.72;;;24.60;99.90;;;;;;5014480;28;20082;-48
2022/06/10 06:03:05;;;;;;;5.15;3.05;;;24.70;99.90;;;;;;5015629;28;20022;-48
2022/06/10 06:05:31;;;;;;;5.60;3.20;;;25.30;99.90;;;;;;5014384;28;20033;-50
2022/06/10 06:07:57;;;;;;;7.47;3.85;;;25.30;99.90;;;;;;5015801;28;20109;-50
2022/06/10 06:10:25;;;;;;;3.38;2.88;;;25.20;99.90;;;;;;5015889;28;20484;-48
2022/06/10 06:12:51;;;;;;;8.85;4.18;;;25.30;99.90;;;;;;5015341;28;20108;-48
2022/06/10 06:15:17;;;;;;;7.85;3.78;;;25.60;99.90;;;;;;5014729;28;20116;-48
2022/06/10 06:17:43;;;;;;;11.45;3.15;;;25.90;99.90;;;;;;5015659;28;20030;-49
2022/06/10 06:20:12;;;;;;;6.20;2.67;;;26.10;99.90;;;;;;5014123;28;20022;-48
2022/06/10 06:22:38;;;;;;;5.18;3.60;;;26.20;99.90;;;;;;5014057;28;20034;-48
2022/06/10 06:25:04;;;;;;;4.75;3.63;;;26.10;99.90;;;;;;5015195;28;20496;-48
2022/06/10 06:27:30;;;;;;;6.85;3.55;;;25.60;99.90;;;;;;5013907;28;20064;-48
2022/06/10 06:29:57;;;;;;;5.72;3.35;;;25.50;99.90;;;;;;5015155;28;20056;-48
2022/06/10 06:32:23;;;;;;;3.80;3.17;;;25.40;99.90;;;;;;5014847;28;20427;-48
2022/06/10 06:34:48;;;;;;;5.00;3.47;;;25.30;99.90;;;;;;5013900;28;20029;-48
2022/06/10 06:37:16;;;;;;;9.00;3.88;;;25.70;99.90;;;;;;5013766;28;20052;-48
2022/06/10 06:39:41;;;;;;;4.22;2.40;;;25.70;99.90;;;;;;5014011;28;20141;-48
2022/06/10 06:42:09;;;;;;;3.70;3.08;;;26.10;99.90;;;;;;5014609;28;20113;-48
2022/06/10 06:44:35;;;;;;;7.55;3.85;;;27.50;99.90;;;;;;5014904;28;20026;-51
2022/06/10 06:47:01;;;;;;;5.22;3.33;;;27.40;99.90;;;;;;5013643;28;20041;-48
2022/06/10 06:49:28;;;;;;;10.68;3.83;;;26.80;99.90;;;;;;5013481;28;20036;-46
2022/06/10 06:51:54;;;;;;;3.92;3.45;;;27.60;99.90;;;;;;5013526;28;20037;-46
2022/06/10 06:54:20;;;;;;;4.90;3.72;;;27.80;99.90;;;;;;5014684;28;20053;-48
2022/06/10 06:56:47;;;;;;;4.32;2.97;;;27.70;99.90;;;;;;5013466;28;20025;-46
2022/06/10 06:59:13;;;;;;;4.60;3.28;;;28.20;99.90;;;;;;5014241;28;20068;-48
2022/06/10 07:02:00;;;;;;;4.68;3.28;;;29.00;99.90;;;;;;5014361;28;20030;-48
2022/06/10 07:04:26;;;;;;;8.50;3.75;;;29.50;99.90;;;;;;5014554;28;20028;-46
2022/06/10 07:06:52;;;;;;;9.77;4.05;;;29.20;98.70;;;;;;5014824;28;20021;-47
2022/06/10 07:09:17;;;;;;;3.85;2.85;;;28.50;98.60;;;;;;5014414;28;20029;-46
2022/06/10 07:11:43;;;;;;;3.97;2.60;;;28.20;99.90;;;;;;5014014;28;20460;-46
2022/06/10 07:14:09;;;;;;;5.05;2.95;;;28.70;99.90;;;;;;5014253;28;20022;-46
2022/06/10 07:16:34;;;;;;;4.72;3.35;;;29.60;98.80;;;;;;5014302;28;20029;-47
2022/06/10 07:19:01;;;;;;;4.32;2.80;;;29.40;98.00;;;;;;5014274;28;20021;-46
2022/06/10 07:21:27;;;;;;;4.80;3.15;;;30.00;95.70;;;;;;5014631;28;20026;-46
2022/06/10 07:23:53;;;;;;;4.25;2.65;;;30.10;94.70;;;;;;5014385;28;20021;-47
2022/06/10 07:26:19;;;;;;;4.78;3.10;;;29.50;94.70;;;;;;5014234;28;20029;-48
2022/06/10 07:28:45;;;;;;;5.97;2.45;;;29.50;95.00;;;;;;5012993;28;20051;-48
2022/06/10 07:31:11;;;;;;;4.90;3.50;;;31.10;94.30;;;;;;5026674;28;20124;-46
2022/06/10 07:36:58;;;;;;;4.45;3.03;;;31.80;93.20;;;;;;5034031;28;20029;-46
2022/06/10 07:39:23;;;;;;;2.67;2.10;;;31.70;91.10;;;;;;5032047;28;20026;-46
2022/06/10 07:42:00;;;;;;;7.03;2.95;;;32.00;90.80;;;;;;5033521;28;20079;-46
2022/06/10 07:44:33;;;;;;;6.90;3.33;;;31.90;90.60;;;;;;5033665;28;20022;-47
2022/06/10 07:47:02;;;;;;;2.53;2.13;;;31.90;90.00;;;;;;5032350;28;20029;-47
2022/06/10 07:49:28;;;;;;;3.78;2.95;;;33.10;89.60;;;;;;5033579;28;20056;-50
2022/06/10 07:51:54;;;;;;;3.88;2.60;;;33.70;86.80;;;;;;5033717;28;20025;-48
2022/06/10 07:54:19;;;;;;;3.25;2.42;;;34.40;83.30;;;;;;5033525;28;20022;-46
2022/06/10 07:56:45;;;;;;;6.55;3.20;;;35.50;83.30;;;;;;5033012;28;20032;-46
2022/06/10 07:59:11;;;;;;;2.63;2.33;;;34.10;79.20;;;;;;5032183;28;20025;-48
2022/06/10 08:01:37;;;;;;;3.95;2.75;;;33.80;81.70;;;;;;5032165;28;20025;-48
2022/06/10 08:04:06;;;;;;;5.15;2.58;;;34.80;78.70;;;;;;5033382;28;20029;-51
2022/06/10 08:06:32;;;;;;;3.13;2.20;;;34.40;76.90;;;;;;5033672;28;20028;-48
2022/06/10 08:08:58;;;;;;;2.58;2.35;;;34.40;81.00;;;;;;5032403;28;20026;-46
2022/06/10 08:11:24;;;;;;;3.25;2.15;;;35.40;76.60;;;;;;5033324;28;20033;-47
2022/06/10 08:14:44;;;;;;;5.10;2.55;;;36.20;75.80;;;;;;5031737;28;20037;-52
2022/06/10 08:23:52;;;;;;;4.55;2.10;;;35.20;69.90;;;;;;5033237;28;20032;-50
2022/06/10 08:26:20;;;;;;;2.65;1.90;;;33.90;71.00;;;;;;5015935;28;20030;-46
2022/06/10 08:28:47;;;;;;;3.92;2.05;;;33.60;71.70;;;;;;5012035;28;20428;-47
2022/06/10 08:31:12;;;;;;;5.10;1.90;;;33.60;70.60;;;;;;5012302;28;20076;-47
2022/06/10 08:33:39;;;;;;;2.70;1.70;;;34.60;72.40;;;;;;5013045;28;20022;-46
2022/06/10 08:36:06;;;;;;;3.38;2.22;;;35.50;68.60;;;;;;5015098;28;20065;-47
2022/06/10 08:38:33;;;;;;;7.53;2.10;;;35.00;67.40;;;;;;5013271;28;20018;-46
2022/06/10 08:41:06;;;;;;;5.93;2.55;;;36.20;69.90;;;;;;5011808;28;20018;-48
2022/06/10 08:43:42;;;;;;;3.35;1.98;;;37.70;66.10;;;;;;5031004;28;20022;-48
2022/06/10 08:46:42;;;;;;;4.03;2.05;;;39.10;65.00;;;;;;5031939;28;20411;-50
2022/06/10 08:49:33;;;;;;;4.55;2.42;;;39.60;61.30;;;;;;5032940;28;20093;-48
2022/06/10 08:52:07;;;;;;;3.40;2.17;;;39.80;63.60;;;;;;5033838;28;20029;-49
2022/06/10 08:54:49;;;;;;;2.95;2.00;;;40.20;60.80;;;;;;5037092;28;20021;-47
2022/06/10 08:57:36;;;;;;;4.97;2.67;;;40.90;57.60;;;;;;5036690;28;20030;-50
2022/06/10 09:00:06;;;;;;;3.65;2.05;;;41.20;57.10;;;;;;5034720;28;20025;-46
2022/06/10 09:02:44;;;;;;;4.47;2.45;;;39.20;58.10;;;;;;5033608;28;20026;-46
2022/06/10 09:05:25;;;;;;;3.20;1.70;;;38.40;58.30;;;;;;5015119;28;20022;-51
2022/06/10 09:08:25;;;;;;;4.47;1.90;;;38.00;60.00;;;;;;5029096;28;20102;-46
2022/06/10 09:10:57;;;;;;;3.78;2.25;;;37.90;61.60;;;;;;5036363;28;20025;-47
2022/06/10 09:13:35;;;;;;;6.00;2.22;;;37.50;59.20;;;;;;5036276;28;20419;-47
2022/06/10 09:16:24;;;;;;;5.95;1.90;;;37.40;59.70;;;;;;5035132;28;20086;-50
2022/06/10 09:22:22;;;;;;;5.55;1.95;;;36.30;62.10;;;;;;5036338;28;20028;-52
2022/06/10 09:25:12;;;;;;;4.97;2.83;;;35.10;62.40;;;;;;5034044;28;20486;-49
2022/06/10 09:27:47;;;;;;;3.97;2.15;;;33.90;64.40;;;;;;5036206;28;20036;-50
2022/06/10 09:30:24;;;;;;;5.82;2.03;;;33.20;65.90;;;;;;5031885;28;20081;-51
2022/06/10 09:33:16;;;;;;;6.32;2.35;;;32.80;67.80;;;;;;5016423;28;20029;-51
2022/06/10 09:36:23;;;;;;;2.80;1.70;;;32.80;67.00;;;;;;5014837;28;20029;-51
2022/06/10 09:38:59;;;;;;;4.47;1.42;;;33.70;65.20;;;;;;5015065;28;20033;-51
2022/06/10 09:42:04;;;;;;;3.88;2.00;;;33.90;67.10;;;;;;5015013;28;20090;-50
2022/06/10 09:45:00;;;;;;;5.32;2.10;;;33.60;65.70;;;;;;5031451;28;20059;-51
2022/06/10 09:47:59;;;;;;;5.97;2.88;;;33.70;65.90;;;;;;5016037;28;20029;-49
2022/06/10 09:51:01;;;;;;;5.05;2.10;;;32.30;67.00;;;;;;5014702;28;20084;-49
2022/06/10 09:53:41;;;;;;;8.50;2.05;;;32.70;68.50;;;;;;5014896;28;20088;-48
2022/06/10 09:56:36;;;;;;;6.57;1.92;;;34.20;66.80;;;;;;5022812;28;20030;-50
2022/06/10 09:59:25;;;;;;;2.30;1.33;;;35.60;64.00;;;;;;5022096;28;20045;-51
2022/06/10 10:02:31;;;;;;;5.57;1.50;;;37.10;59.70;;;;;;5030515;28;20018;-53
2022/06/10 10:05:55;;;;;;;8.00;1.80;;;38.60;59.00;;;;;;5015509;28;20026;-53
2022/06/10 10:08:44;;;;;;;6.72;1.98;;;39.40;56.70;;;;;;5017949;28;20029;-49
2022/06/10 10:11:18;;;;;;;3.80;1.40;;;38.50;54.20;;;;;;5031386;28;20026;-49
2022/06/10 10:14:07;;;;;;;4.43;1.77;;;37.10;56.40;;;;;;5018309;28;20074;-49
2022/06/10 10:16:58;;;;;;;8.18;2.15;;;37.10;57.00;;;;;;5030055;28;20033;-50
2022/06/10 10:19:47;;;;;;;3.90;1.58;;;37.50;57.30;;;;;;5022653;28;20018;-53
2022/06/10 10:22:39;;;;;;;4.22;1.48;;;38.50;57.10;;;;;;5019003;28;20026;-50
2022/06/10 10:25:18;;;;;;;3.28;1.52;;;38.80;56.90;;;;;;5036350;28;20061;-49
2022/06/10 10:27:56;;;;;;;8.05;2.08;;;38.70;54.90;;;;;;5029772;28;20025;-50
2022/06/10 10:30:47;;;;;;;3.53;1.42;;;37.50;55.70;;;;;;5033664;28;20113;-49
2022/06/10 10:33:23;;;;;;;8.48;1.60;;;34.50;57.00;;;;;;5025788;28;20476;-54
2022/06/10 10:35:59;;;;;;;3.47;1.50;;;34.10;59.20;;;;;;5015884;28;20034;-51
2022/06/10 10:38:44;;;;;;;4.65;1.20;;;34.20;58.40;;;;;;5034676;28;20023;-49
2022/06/10 10:41:25;;;;;;;5.93;1.45;;;32.80;59.10;;;;;;5030081;28;20400;-50
2022/06/10 10:43:59;;;;;;;5.15;1.70;;;31.40;60.40;;;;;;5022321;28;20030;-50
2022/06/10 10:46:40;;;;;;;4.72;1.30;;;29.70;63.60;;;;;;5014771;28;20104;-51
2022/06/10 10:49:32;;;;;;;4.38;1.58;;;29.30;65.40;;;;;;5013535;28;20029;-49
2022/06/10 10:52:24;;;;;;;4.05;1.20;;;29.40;67.80;;;;;;5014512;28;20025;-53
2022/06/10 10:54:59;;;;;;;4.10;1.33;;;29.80;66.60;;;;;;5014661;28;20101;-49
2022/06/10 10:57:42;;;;;;;4.75;1.30;;;29.30;63.80;;;;;;5013736;28;20022;-47
2022/06/10 11:00:23;;;;;;;3.42;1.38;;;29.00;64.90;;;;;;5013398;28;20080;-49
2022/06/10 11:03:35;;;;;;;4.05;1.17;;;28.00;66.90;;;;;;5019799;28;20022;-50
2022/06/10 11:06:11;;;;;;;3.42;1.40;;;28.30;68.70;;;;;;5013158;28;20102;-49
2022/06/10 11:08:57;;;;;;;3.85;1.40;;;29.00;67.90;;;;;;5014406;28;20096;-50
2022/06/10 11:11:39;;;;;;;5.03;1.65;;;29.40;67.40;;;;;;5013025;28;20053;-49
2022/06/10 11:14:28;;;;;;;3.72;1.25;;;29.10;65.20;;;;;;5012593;28;20030;-50
2022/06/10 11:17:00;;;;;;;5.55;1.65;;;29.20;69.00;;;;;;5026971;28;20036;-49
2022/06/10 11:19:48;;;;;;;3.42;1.45;;;29.30;67.50;;;;;;5033901;28;20022;-50
2022/06/10 11:22:36;;;;;;;2.30;1.02;;;29.50;66.30;;;;;;5026661;28;20120;-50
2022/06/10 11:28:35;;;;;;;5.15;1.45;;;29.90;66.40;;;;;;5033826;28;20024;-48
2022/06/10 11:31:28;;;;;;;;;;;;;;;;;;;;;
2022/06/10 11:34:10;;;;;;;6.55;1.88;;;29.90;68.80;;;;;;5033655;28;20034;-50
2022/06/10 11:36:58;;;;;;;3.10;1.25;;;30.00;67.30;;;;;;5033663;28;20037;-49
2022/06/10 11:39:50;;;;;;;3.90;1.30;;;29.90;66.30;;;;;;5033630;28;20022;-48
2022/06/10 11:42:31;;;;;;;3.40;1.40;;;29.80;67.00;;;;;;5033355;28;20061;-53
2022/06/10 11:45:40;;;;;;;1.65;1.40;;;29.70;65.80;;;;;;5032321;28;20541;-48
2022/06/10 11:48:20;;;;;;;3.08;1.30;;;29.50;65.30;;;;;;5032114;28;20033;-50
2022/06/10 11:50:55;;;;;;;5.05;1.40;;;29.60;66.90;;;;;;5033494;28;20026;-46
2022/06/10 11:54:03;;;;;;;4.22;1.27;;;29.40;66.50;;;;;;5031915;28;20032;-49
2022/06/10 12:00:09;;;;;;;5.00;1.45;;;28.90;68.80;;;;;;5033573;28;20383;-47
2022/06/10 12:02:55;;;;;;;7.55;1.63;;;29.00;68.90;;;;;;5022396;28;20026;-51
2022/06/10 12:05:53;;;;;;;6.13;1.60;;;29.00;66.90;;;;;;5013269;28;20489;-50
2022/06/10 12:08:53;;;;;;;2.65;1.40;;;28.40;66.10;;;;;;5013383;28;20053;-56
2022/06/10 12:11:50;;;;;;;5.80;1.70;;;28.10;70.60;;;;;;5013334;28;20022;-53
2022/06/10 12:14:37;;;;;;;4.97;1.50;;;28.30;68.10;;;;;;5013789;28;20018;-49
2022/06/10 12:17:31;;;;;;;5.05;1.42;;;28.20;69.50;;;;;;5012499;28;20065;-49
2022/06/10 12:20:21;;;;;;;4.60;1.48;;;28.30;69.40;;;;;;5012098;28;20042;-52
2022/06/10 12:22:55;;;;;;;4.82;1.20;;;28.40;70.00;;;;;;5012169;28;20022;-53
2022/06/10 12:25:29;;;;;;;2.70;1.02;;;28.50;70.10;;;;;;5014306;28;20045;-55
2022/06/10 12:28:20;;;;;;;5.18;1.38;;;28.60;68.30;;;;;;5017444;28;20026;-53
2022/06/10 12:31:28;;;;;;;1.65;1.25;;;28.60;68.50;;;;;;5016649;28;20022;-55
2022/06/10 12:34:20;;;;;;;6.13;1.48;;;28.70;69.10;;;;;;5018433;28;20091;-56
2022/06/10 12:37:08;;;;;;;3.05;1.40;;;28.70;67.20;;;;;;5036771;28;20079;-57
2022/06/10 12:39:56;;;;;;;5.07;1.73;;;28.60;66.30;;;;;;5036892;28;20101;-57
2022/06/10 12:43:00;;;;;;;5.45;2.13;;;28.60;67.00;;;;;;5017113;28;20056;-54
2022/06/10 12:46:03;;;;;;;3.85;1.30;;;28.60;67.20;;;;;;5017106;28;20093;-56
2022/06/10 12:48:49;;;;;;;2.25;1.38;;;28.50;67.70;;;;;;5025817;28;20034;-58
2022/06/10 12:51:46;;;;;;;4.00;1.75;;;28.50;67.20;;;;;;5028673;28;20038;-57
2022/06/10 12:54:41;;;;;;;3.95;1.38;;;28.50;68.10;;;;;;5015274;28;20076;-57
2022/06/10 12:57:39;;;;;;;3.05;1.40;;;28.60;69.20;;;;;;5015358;28;20038;-54
2022/06/10 13:00:23;;;;;;;1.88;1.10;;;28.60;68.70;;;;;;5013949;28;20122;-56
2022/06/10 13:03:04;;;;;;;1.85;1.13;;;28.20;68.00;;;;;;5015795;28;20030;-57
2022/06/10 13:05:42;;;;;;;5.57;1.48;;;28.30;70.20;;;;;;5008795;28;20097;-57
2022/06/10 13:08:35;;;;;;;2.22;1.13;;;28.30;67.70;;;;;;5017007;28;20060;-48
2022/06/10 13:11:03;;;;;;;3.55;1.30;;;28.20;68.00;;;;;;5015435;28;20034;-48
2022/06/10 13:13:29;;;;;;;4.85;1.20;;;28.10;68.50;;;;;;5015613;28;20033;-50
2022/06/10 13:16:16;;;;;;;5.00;1.20;;;28.10;68.50;;;;;;5015313;28;20022;-55
2022/06/10 13:18:53;;;;;;;11.38;1.50;;;27.40;68.80;;;;;;5016516;28;20084;-50
2022/06/10 13:21:29;;;;;;;8.73;1.77;;;26.80;70.60;;;;;;5016480;28;20484;-49
2022/06/10 13:24:12;;;;;;;4.43;1.80;;;26.30;70.30;;;;;;5016508;28;20026;-50
2022/06/10 13:26:38;;;;;;;3.03;1.50;;;26.20;71.10;;;;;;5016695;28;20030;-48
2022/06/10 13:29:16;;;;;;;3.65;1.33;;;26.00;72.10;;;;;;5032786;28;20519;-51
2022/06/10 13:31:54;;;;;;;4.95;1.42;;;26.10;72.60;;;;;;5016409;28;20033;-48
2022/06/10 13:34:24;;;;;;;4.20;1.30;;;26.40;71.10;;;;;;5016311;28;20033;-52
2022/06/10 13:36:56;;;;;;;2.55;1.02;;;26.60;70.60;;;;;;5015760;28;20029;-51
2022/06/10 13:39:30;;;;;;;3.05;1.08;;;26.70;70.60;;;;;;5015880;28;20032;-53
2022/06/10 13:41:56;;;;;;;1.83;1.20;;;26.90;71.70;;;;;;5014967;28;20026;-50
2022/06/10 13:44:30;;;;;;;3.85;1.10;;;26.80;72.60;;;;;;5016419;28;20105;-53
2022/06/10 13:46:57;;;;;;;4.32;1.30;;;27.00;74.60;;;;;;5015667;28;20026;-50
2022/06/10 13:52:39;;;;;;;3.20;1.00;;;27.20;73.90;;;;;;5016078;28;20107;-50
2022/06/10 13:55:26;;;;;;;3.60;1.23;;;27.30;73.30;;;;;;5015635;28;20065;-51
2022/06/10 13:58:17;;;;;;;4.30;1.50;;;27.30;72.60;;;;;;5014525;28;20025;-52
2022/06/10 14:00:54;;;;;;;1.80;1.20;;;27.30;72.00;;;;;;5015789;28;20022;-50
2022/06/10 14:03:37;;;;;;;2.33;0.95;;;27.30;72.90;;;;;;5031380;28;20121;-50
2022/06/10 14:06:12;;;;;;;2.33;1.40;;;27.40;72.20;;;;;;5015611;28;20026;-52